Time;durP1;ratioP1;P1;durP2;ratioP2;P2;SDS_P1;SDS_P2;PMS_P1;PMS_P2;Temp;Humidity;BMP_temperature;BMP_pressure;BME280_temperature;BME280_humidity;BME280_pressure;Samples;Min_cycle;Max_cycle;Signal;HPM_P1;HPM_P2
2022/10/26 00:00:12;;;;;;;17.90;14.20;;;;;;;10.02;100.00;99290.63;106320;1286;65074;-78
2022/10/26 00:02:58;;;;;;;18.90;13.40;;;;;;;10.04;100.00;99290.48;106320;1284;58922;-78
2022/10/26 00:05:25;;;;;;;18.90;12.70;;;;;;;10.06;100.00;99292.33;106331;1279;58796;-77
2022/10/26 00:07:51;;;;;;;17.10;13.40;;;;;;;10.08;100.00;99290.80;106075;1288;66044;-78
2022/10/26 00:10:20;;;;;;;15.30;13.50;;;;;;;10.10;100.00;99292.65;106331;1284;59772;-78
2022/10/26 00:12:49;;;;;;;17.40;12.80;;;;;;;10.12;100.00;99296.09;106324;1285;62624;-78
2022/10/26 00:15:20;;;;;;;22.10;13.70;;;;;;;10.13;100.00;99299.04;106311;1284;59233;-78
2022/10/26 00:17:47;;;;;;;18.80;13.50;;;;;;;10.16;100.00;99301.35;106333;1285;58998;-78
2022/10/26 00:20:14;;;;;;;17.70;13.70;;;;;;;10.20;100.00;99300.08;106329;1285;66868;-79
2022/10/26 00:22:40;;;;;;;15.60;13.40;;;;;;;10.21;100.00;99302.79;106338;1284;60959;-78
2022/10/26 00:25:07;;;;;;;21.80;18.40;;;;;;;10.21;100.00;99297.86;106234;1281;65676;-78
2022/10/26 00:27:34;;;;;;;18.70;16.30;;;;;;;10.21;100.00;99301.74;106024;1281;59020;-78
2022/10/26 00:30:03;;;;;;;19.50;16.40;;;;;;;10.21;100.00;99304.42;106330;1285;58887;-78
2022/10/26 00:32:31;;;;;;;24.10;19.20;;;;;;;10.22;100.00;99303.50;106319;1285;65817;-79
2022/10/26 00:34:57;;;;;;;26.00;20.10;;;;;;;10.24;100.00;99301.06;106316;1285;60781;-78
2022/10/26 00:37:24;;;;;;;23.70;19.90;;;;;;;10.25;100.00;99304.88;106318;1285;65002;-78
2022/10/26 00:39:50;;;;;;;22.50;18.40;;;;;;;10.26;100.00;99306.76;106068;1291;58891;-78
2022/10/26 00:42:20;;;;;;;20.00;15.10;;;;;;;10.28;100.00;99304.02;106331;1285;58943;-79
2022/10/26 00:44:47;;;;;;;22.90;16.80;;;;;;;10.29;100.00;99302.70;106307;1271;67190;-78
2022/10/26 00:47:34;;;;;;;22.20;15.90;;;;;;;10.29;100.00;99301.27;106315;1278;59922;-78
2022/10/26 00:50:14;;;;;;;25.40;17.80;;;;;;;10.30;100.00;99306.02;106298;1285;64981;-79
2022/10/26 00:52:41;;;;;;;15.70;14.00;;;;;;;10.30;100.00;99306.55;106315;1285;58910;-79
2022/10/26 00:55:08;;;;;;;15.20;13.40;;;;;;;10.29;100.00;99305.35;106321;1285;59098;-78
2022/10/26 00:57:37;;;;;;;17.60;15.30;;;;;;;10.27;100.00;99301.08;106062;1289;67204;-78
2022/10/26 01:00:07;;;;;;;17.40;15.30;;;;;;;10.23;100.00;99297.02;105910;1285;61016;-79
2022/10/26 01:02:34;;;;;;;16.50;14.10;;;;;;;10.18;100.00;99297.12;106320;1279;64746;-78
2022/10/26 01:05:03;;;;;;;18.80;16.60;;;;;;;10.11;100.00;99297.89;106286;1284;59205;-78
2022/10/26 01:07:31;;;;;;;13.90;12.40;;;;;;;10.05;100.00;99299.01;106326;1285;58943;-78
2022/10/26 01:10:00;;;;;;;16.20;13.20;;;;;;;9.97;100.00;99297.00;106315;1284;67052;-78
2022/10/26 01:12:26;;;;;;;17.50;14.10;;;;;;;9.88;100.00;99299.50;106348;1282;60206;-78
2022/10/26 01:14:53;;;;;;;21.90;14.80;;;;;;;9.80;100.00;99296.37;106335;1285;65396;-78
2022/10/26 01:17:41;;;;;;;18.90;14.50;;;;;;;9.73;100.00;99294.87;106282;1278;58974;-78
2022/10/26 01:20:28;;;;;;;15.70;12.90;;;;;;;9.63;100.00;99295.41;106340;1279;59067;-78
2022/10/26 01:23:17;;;;;;;16.80;14.40;;;;;;;9.54;100.00;99304.47;106304;1285;67065;-78
2022/10/26 01:25:55;;;;;;;25.50;22.00;;;;;;;9.42;100.00;99306.93;106327;1278;61008;-79
2022/10/26 01:28:34;;;;;;;30.30;24.00;;;;;;;9.34;100.00;99305.10;106317;1282;65131;-78
2022/10/26 01:31:07;;;;;;;24.60;22.00;;;;;;;9.26;100.00;99301.98;106318;1285;58963;-78
2022/10/26 01:33:38;;;;;;;30.50;23.80;;;;;;;9.21;100.00;99302.97;106331;1285;58879;-78
2022/10/26 01:36:22;;;;;;;32.20;25.70;;;;;;;9.18;100.00;99304.19;106316;1285;67008;-78
2022/10/26 01:38:55;;;;;;;27.80;24.90;;;;;;;9.17;100.00;99304.99;106327;1285;60046;-78
2022/10/26 01:41:30;;;;;;;28.10;22.50;;;;;;;9.16;100.00;99300.41;106311;1284;72489;-77
2022/10/26 01:44:09;;;;;;;25.80;22.70;;;;;;;9.16;100.00;99302.35;106371;1282;59225;-78
2022/10/26 01:46:41;;;;;;;27.40;24.50;;;;;;;9.16;100.00;99302.53;106348;1286;58976;-78
2022/10/26 01:49:13;;;;;;;28.60;25.10;;;;;;;9.17;100.00;99303.73;106332;1278;67058;-79
2022/10/26 01:51:41;;;;;;;30.80;27.20;;;;;;;9.16;100.00;99300.21;106323;1278;61026;-78
2022/10/26 01:54:08;;;;;;;31.60;28.20;;;;;;;9.17;100.00;99296.30;106329;1287;65029;-78
2022/10/26 01:56:39;;;;;;;38.60;29.60;;;;;;;9.19;100.00;99296.16;106299;1285;58839;-78
2022/10/26 01:59:25;;;;;;;30.80;26.20;;;;;;;9.21;100.00;99298.17;105983;1291;58848;-78
2022/10/26 02:01:57;;;;;;;34.00;26.80;;;;;;;9.20;100.00;99292.02;106308;1284;66017;-78
2022/10/26 02:04:36;;;;;;;29.70;25.80;;;;;;;9.20;100.00;99292.17;106359;1284;59711;-78
2022/10/26 02:07:34;;;;;;;27.10;22.50;;;;;;;9.19;100.00;99294.91;106318;1285;65174;-77
2022/10/26 02:10:26;;;;;;;28.50;25.50;;;;;;;9.17;100.00;99297.16;106329;1285;58855;-78
2022/10/26 02:13:17;;;;;;;30.60;25.60;;;;;;;9.14;100.00;99296.29;106321;1285;58943;-78
2022/10/26 02:16:27;;;;;;;28.90;25.90;;;;;;;9.13;100.00;99296.88;106292;1286;66998;-78
2022/10/26 02:19:04;;;;;;;29.70;25.50;;;;;;;9.13;100.00;99294.20;105619;1289;59817;-78
2022/10/26 02:21:36;;;;;;;33.80;28.00;;;;;;;9.13;100.00;99296.52;105525;1291;65158;-78
2022/10/26 02:24:07;;;;;;;30.00;26.80;;;;;;;9.14;100.00;99300.20;105825;1290;59143;-77
2022/10/26 02:26:35;;;;;;;32.40;28.40;;;;;;;9.15;100.00;99303.85;105808;1291;59373;-78
2022/10/26 02:29:08;;;;;;;33.60;30.00;;;;;;;9.17;100.00;99306.41;105799;1291;66007;-78
2022/10/26 02:31:36;;;;;;;33.30;29.60;;;;;;;9.18;100.00;99304.92;105821;1284;59759;-79
2022/10/26 02:34:09;;;;;;;37.10;30.10;;;;;;;9.19;100.00;99306.11;105818;1291;65183;-79
2022/10/26 02:36:40;;;;;;;36.40;29.80;;;;;;;9.20;100.00;99303.89;105825;1298;58995;-78
2022/10/26 02:39:09;;;;;;;32.80;28.30;;;;;;;9.23;100.00;99304.64;105817;1283;59016;-78
2022/10/26 02:41:39;;;;;;;31.40;28.00;;;;;;;9.25;100.00;99303.63;105796;1291;67287;-78
2022/10/26 02:44:13;;;;;;;;;;;;;;;9.26;100.00;99304.85;105822;1291;61047;-78
2022/10/26 02:46:41;;;;;;;30.70;27.30;;;;;;;9.23;100.00;99308.35;105814;1287;64094;-78
2022/10/26 02:49:08;;;;;;;33.10;27.60;;;;;;;9.20;100.00;99308.34;105507;1289;59352;-78
2022/10/26 02:52:20;;;;;;;33.20;27.60;;;;;;;9.18;100.00;99310.55;105646;1293;59164;-78
2022/10/26 02:54:56;;;;;;;29.80;26.70;;;;;;;9.15;100.00;99311.62;105539;1300;67108;-78
2022/10/26 02:57:33;;;;;;;30.40;27.10;;;;;;;9.14;100.00;99314.91;105752;1287;60960;-78
2022/10/26 03:00:00;;;;;;;32.80;29.50;;;;;;;9.10;100.00;99317.93;105745;1285;65497;-78
2022/10/26 03:02:29;;;;;;;39.30;35.00;;;;;;;9.06;100.00;99320.48;105727;1292;59304;-78
2022/10/26 03:04:59;;;;;;;35.30;30.90;;;;;;;9.03;100.00;99315.36;105734;1287;59153;-78
2022/10/26 03:07:26;;;;;;;33.60;29.90;;;;;;;9.03;100.00;99317.64;105722;1294;65975;-78
2022/10/26 03:09:53;;;;;;;33.80;28.80;;;;;;;9.01;100.00;99316.14;105757;1286;59820;-78
2022/10/26 03:12:19;;;;;;;33.20;29.30;;;;;;;8.98;100.00;99314.88;105756;1293;63921;-78
2022/10/26 03:14:46;;;;;;;36.30;30.20;;;;;;;8.95;100.00;99313.82;105744;1292;59069;-78
2022/10/26 03:17:13;;;;;;;34.90;29.90;;;;;;;8.91;100.00;99315.80;105561;1297;59068;-78
2022/10/26 03:19:39;;;;;;;28.70;25.00;;;;;;;8.86;100.00;99315.18;105740;1292;65494;-78
2022/10/26 03:22:06;;;;;;;27.30;24.40;;;;;;;8.82;100.00;99315.97;105737;1292;60046;-78
2022/10/26 03:24:32;;;;;;;27.10;24.20;;;;;;;8.75;100.00;99315.46;105751;1286;65442;-78
2022/10/26 03:26:59;;;;;;;27.40;24.70;;;;;;;8.68;100.00;99313.15;106339;1284;59079;-79
2022/10/26 03:29:25;;;;;;;24.40;22.00;;;;;;;8.63;100.00;99314.69;106344;1284;59140;-79
2022/10/26 03:31:54;;;;;;;25.20;22.60;;;;;;;8.57;100.00;99319.09;106338;1285;66981;-79
2022/10/26 03:34:20;;;;;;;27.10;24.20;;;;;;;8.50;100.00;99319.98;106351;1269;61072;-78
2022/10/26 03:36:47;;;;;;;23.90;21.30;;;;;;;8.44;100.00;99322.95;106354;1285;65048;-78
2022/10/26 03:39:15;;;;;;;24.40;21.80;;;;;;;8.37;100.00;99323.81;106294;1285;58774;-78
2022/10/26 03:41:41;;;;;;;27.60;24.60;;;;;;;8.30;100.00;99323.63;106589;1278;58909;-78
2022/10/26 03:44:08;;;;;;;26.50;23.80;;;;;;;8.25;100.00;99328.89;106338;1286;67517;-77
2022/10/26 03:46:35;;;;;;;26.20;23.50;;;;;;;8.20;100.00;99326.48;106395;1286;58976;-78
2022/10/26 03:49:01;;;;;;;27.40;24.30;;;;;;;8.15;100.00;99331.52;106406;1285;65121;-79
2022/10/26 03:51:28;;;;;;;31.80;28.30;;;;;;;8.09;100.00;99331.30;106368;1285;58999;-77
2022/10/26 03:53:54;;;;;;;33.30;29.10;;;;;;;8.05;100.00;99337.14;106329;1286;58892;-78
2022/10/26 03:56:21;;;;;;;32.40;27.70;;;;;;;8.03;100.00;99336.20;106329;1285;65951;-78
2022/10/26 03:58:47;;;;;;;31.80;26.30;;;;;;;8.00;100.00;99333.68;106336;1284;61015;-78
2022/10/26 04:01:14;;;;;;;29.00;25.30;;;;;;;7.96;100.00;99332.86;106351;1284;64046;-78
2022/10/26 04:03:41;;;;;;;24.30;21.20;;;;;;;7.88;100.00;99333.76;106346;1284;59262;-78
2022/10/26 04:06:07;;;;;;;32.90;25.80;;;;;;;7.82;100.00;99333.70;106316;1286;59057;-78
2022/10/26 04:08:34;;;;;;;30.20;25.40;;;;;;;7.78;100.00;99332.86;106302;1286;67019;-78
2022/10/26 04:11:01;;;;;;;43.90;33.70;;;;;;;7.72;100.00;99327.70;106324;1286;60230;-78
2022/10/26 04:13:28;;;;;;;47.00;39.00;;;;;;;7.71;100.00;99323.14;106340;1283;62581;-78
2022/10/26 04:15:55;;;;;;;48.10;35.00;;;;;;;7.72;100.00;99324.51;106318;1278;59196;-79
2022/10/26 04:18:21;;;;;;;40.00;33.80;;;;;;;7.70;100.00;99326.70;106299;1286;58764;-79
2022/10/26 04:20:48;;;;;;;38.70;32.60;;;;;;;7.66;100.00;99325.82;106325;1278;66740;-79
2022/10/26 04:23:16;;;;;;;39.50;33.10;;;;;;;7.62;100.00;99325.51;105916;1284;147467;-79
2022/10/26 04:25:43;;;;;;;40.20;31.40;;;;;;;7.58;100.00;99330.50;106310;1285;72152;-78
2022/10/26 04:28:12;;;;;;;41.50;32.60;;;;;;;7.55;100.00;99329.95;106322;1284;58880;-79
2022/10/26 04:30:39;;;;;;;39.80;32.20;;;;;;;7.52;100.00;99328.86;106320;1284;58769;-78
2022/10/26 04:33:06;;;;;;;43.00;34.90;;;;;;;7.49;100.00;99334.83;106299;1285;66038;-78
2022/10/26 04:35:33;;;;;;;52.30;35.20;;;;;;;7.45;100.00;99339.61;106345;1285;59941;-78
2022/10/26 04:38:01;;;;;;;44.30;32.40;;;;;;;7.42;100.00;99340.30;106313;1284;64805;-78
2022/10/26 04:40:29;;;;;;;52.50;33.90;;;;;;;7.40;100.00;99344.10;106315;1278;59002;-77
2022/10/26 04:42:56;;;;;;;73.40;33.50;;;;;;;7.37;100.00;99344.58;106335;1278;58914;-77
2022/10/26 04:45:23;;;;;;;86.60;33.40;;;;;;;7.35;100.00;99342.40;105994;1291;67016;-77
2022/10/26 04:47:59;;;;;;;54.90;30.20;;;;;;;7.31;100.00;99342.92;106333;1277;60752;-76
2022/10/26 04:50:26;;;;;;;168.10;38.20;;;;;;;7.25;100.00;99342.86;106310;1285;63998;-77
2022/10/26 04:52:53;;;;;;;88.90;38.30;;;;;;;7.23;100.00;99345.27;106316;1285;59697;-77
2022/10/26 04:55:20;;;;;;;64.50;34.90;;;;;;;7.21;100.00;99350.83;106337;1272;58903;-76
2022/10/26 04:57:46;;;;;;;92.90;36.30;;;;;;;7.19;100.00;99351.46;106068;1288;65958;-77
2022/10/26 05:00:13;;;;;;;47.80;33.50;;;;;;;7.17;100.00;99345.93;106342;1286;60784;-77
2022/10/26 05:02:40;;;;;;;42.40;32.80;;;;;;;7.15;100.00;99348.49;106340;1285;65006;-76
2022/10/26 05:05:07;;;;;;;39.70;30.70;;;;;;;7.10;100.00;99350.98;106109;1290;59740;-77
2022/10/26 05:07:34;;;;;;;101.50;35.90;;;;;;;7.05;100.00;99346.83;106341;1285;58969;-77
2022/10/26 05:10:01;;;;;;;47.10;33.40;;;;;;;7.03;100.00;99345.86;106338;1285;67055;-77
2022/10/26 05:12:28;;;;;;;58.30;35.90;;;;;;;7.01;100.00;99351.05;106340;1284;59770;-77
2022/10/26 05:14:57;;;;;;;58.30;34.40;;;;;;;6.99;100.00;99349.03;106322;1279;65144;-76
2022/10/26 05:17:25;;;;;;;59.20;34.40;;;;;;;6.96;100.00;99347.58;106324;1278;59174;-77
2022/10/26 05:19:54;;;;;;;53.00;33.30;;;;;;;6.95;100.00;99348.00;106234;1292;59020;-77
2022/10/26 05:22:21;;;;;;;111.30;37.50;;;;;;;6.92;100.00;99347.97;106319;1285;67036;-77
2022/10/26 05:24:48;;;;;;;101.20;38.10;;;;;;;6.89;100.00;99345.09;106346;1284;59993;-77
2022/10/26 05:27:15;;;;;;;86.10;40.30;;;;;;;6.88;100.00;99351.33;106083;1295;65018;-77
2022/10/26 05:29:41;;;;;;;56.00;41.80;;;;;;;6.86;100.00;99357.95;106335;1284;59755;-76
2022/10/26 05:32:08;;;;;;;51.40;40.10;;;;;;;6.85;100.00;99361.02;106346;1285;58780;-76
2022/10/26 05:34:35;;;;;;;56.20;42.20;;;;;;;6.85;100.00;99361.90;106319;1284;67084;-76
2022/10/26 05:37:01;;;;;;;48.20;38.20;;;;;;;6.87;100.00;99359.33;106354;1284;60102;-76
2022/10/26 05:39:28;;;;;;;48.70;39.20;;;;;;;6.89;100.00;99364.38;106334;1285;64076;-77
2022/10/26 05:41:54;;;;;;;42.80;35.70;;;;;;;6.89;100.00;99369.11;106076;1288;59079;-77
2022/10/26 05:44:21;;;;;;;41.70;34.80;;;;;;;6.88;100.00;99369.67;106364;1292;58742;-77
2022/10/26 05:46:47;;;;;;;44.00;37.20;;;;;;;6.88;100.00;99371.12;106335;1278;66201;-77
2022/10/26 05:49:14;;;;;;;39.30;33.20;;;;;;;6.89;100.00;99371.77;106351;1284;61214;-77
2022/10/26 05:51:41;;;;;;;37.40;32.20;;;;;;;6.91;100.00;99370.59;106341;1285;64052;-76
2022/10/26 05:54:08;;;;;;;39.60;33.70;;;;;;;6.95;100.00;99370.08;106333;1286;58935;-77
2022/10/26 05:56:36;;;;;;;38.20;32.00;;;;;;;6.98;100.00;99371.70;106352;1285;58951;-77
2022/10/26 05:59:09;;;;;;;34.50;30.80;;;;;;;6.99;100.00;99374.47;106346;1285;65977;-77
2022/10/26 06:01:51;;;;;;;33.40;29.90;;;;;;;6.99;100.00;99372.73;106331;1284;59881;-77
2022/10/26 06:04:34;;;;;;;36.80;32.80;;;;;;;7.00;100.00;99376.73;106363;1291;65013;-76
2022/10/26 06:07:02;;;;;;;37.10;32.00;;;;;;;7.02;100.00;99379.98;106335;1284;58959;-77
2022/10/26 06:09:29;;;;;;;35.50;31.70;;;;;;;7.06;100.00;99381.61;106312;1286;59321;-76
2022/10/26 06:11:56;;;;;;;37.30;32.90;;;;;;;7.11;100.00;99383.64;106338;1286;66978;-77
2022/10/26 06:14:23;;;;;;;40.00;32.90;;;;;;;7.17;100.00;99387.45;106106;1289;60942;-77
2022/10/26 06:17:28;;;;;;;36.60;32.50;;;;;;;7.18;100.00;99389.49;106319;1288;65018;-78
2022/10/26 06:19:55;;;;;;;37.70;33.10;;;;;;;7.23;100.00;99391.05;105633;1286;59039;-77
2022/10/26 06:22:34;;;;;;;44.20;36.20;;;;;;;7.33;100.00;99395.17;105596;1298;59005;-78
2022/10/26 06:25:00;;;;;;;66.30;44.00;;;;;;;7.41;100.00;99391.60;105623;1285;66128;-77
2022/10/26 06:27:40;;;;;;;71.10;46.60;;;;;;;7.54;100.00;99393.29;105648;1298;68149;-77
2022/10/26 06:30:10;;;;;;;71.20;49.90;;;;;;;7.70;100.00;99391.63;105661;1288;64036;-77
2022/10/26 06:32:38;;;;;;;;;;;;;;;7.84;100.00;99392.16;105670;1294;59096;-77
2022/10/26 06:35:26;;;;;;;66.00;50.20;;;;;;;7.96;100.00;99393.52;105664;1300;58969;-77
2022/10/26 06:37:55;;;;;;;60.30;43.20;;;;;;;8.06;100.00;99399.19;105654;1294;67026;-78
2022/10/26 06:40:23;;;;;;;51.60;40.10;;;;;;;8.15;100.00;99403.21;105655;1293;61013;-78
2022/10/26 06:42:50;;;;;;;50.80;40.30;;;;;;;8.21;100.00;99409.61;105635;1301;65031;-77
2022/10/26 06:45:17;;;;;;;47.50;38.70;;;;;;;8.27;100.00;99413.03;105669;1293;58959;-78
2022/10/26 06:47:59;;;;;;;44.30;39.00;;;;;;;8.35;100.00;99411.91;105666;1298;59082;-78
2022/10/26 06:50:41;;;;;;;43.50;39.00;;;;;;;8.47;100.00;99412.06;105659;1293;66034;-78
2022/10/26 06:53:32;;;;;;;40.60;36.30;;;;;;;8.60;100.00;99409.45;105667;1286;61109;-78
2022/10/26 06:55:59;;;;;;;36.90;33.20;;;;;;;8.74;100.00;99406.72;105552;1296;64000;-78
2022/10/26 06:58:35;;;;;;;37.30;33.60;;;;;;;8.88;100.00;99406.19;106222;1285;58782;-77
2022/10/26 07:01:02;;;;;;;37.80;33.90;;;;;;;8.99;100.00;99410.70;106356;1285;58922;-77
2022/10/26 07:03:29;;;;;;;37.40;33.50;;;;;;;9.10;100.00;99414.71;106348;1285;64364;-78
2022/10/26 07:05:55;;;;;;;36.30;32.50;;;;;;;9.22;100.00;99418.34;106360;1284;59998;-78
2022/10/26 07:08:22;;;;;;;34.40;31.20;;;;;;;9.32;100.00;99414.80;106324;1285;65028;-78
2022/10/26 07:10:49;;;;;;;34.10;30.60;;;;;;;9.43;100.00;99415.92;106323;1286;59357;-78
2022/10/26 07:13:16;;;;;;;35.40;31.60;;;;;;;9.54;100.00;99418.87;106319;1285;59068;-78
2022/10/26 07:15:42;;;;;;;33.60;30.00;;;;;;;9.65;100.00;99418.23;106313;1285;67013;-78
2022/10/26 07:18:09;;;;;;;31.70;28.50;;;;;;;9.76;100.00;99418.34;106320;1284;61006;-78
2022/10/26 07:20:40;;;;;;;35.00;31.40;;;;;;;9.87;100.00;99417.36;106297;1286;64266;-78
2022/10/26 07:23:11;;;;;;;35.00;30.90;;;;;;;9.98;100.00;99418.34;106330;1292;58922;-78
2022/10/26 07:25:39;;;;;;;32.90;29.60;;;;;;;10.10;100.00;99419.43;106327;1285;60486;-77
2022/10/26 07:28:09;;;;;;;32.00;28.70;;;;;;;10.20;100.00;99417.04;106322;1286;66979;-77
2022/10/26 07:30:38;;;;;;;31.00;27.70;;;;;;;10.30;100.00;99420.75;106325;1284;60750;-77
2022/10/26 07:33:12;;;;;;;30.50;27.50;;;;;;;10.40;100.00;99420.70;106324;1284;65002;-77
2022/10/26 07:35:40;;;;;;;30.20;27.00;;;;;;;10.50;100.00;99426.46;106335;1282;59017;-76
2022/10/26 07:38:07;;;;;;;31.20;28.00;;;;;;;10.61;100.00;99419.65;106114;1289;59019;-76
2022/10/26 07:40:36;;;;;;;30.30;27.40;;;;;;;10.71;100.00;99419.73;106336;1286;66776;-77
2022/10/26 07:43:03;;;;;;;32.30;27.70;;;;;;;10.81;100.00;99418.58;106334;1284;60798;-77
2022/10/26 07:45:30;;;;;;;32.10;28.20;;;;;;;10.91;100.00;99422.92;106319;1285;64045;-77
2022/10/26 07:47:57;;;;;;;30.00;26.90;;;;;;;11.02;100.00;99419.25;106319;1286;59248;-77
2022/10/26 07:50:24;;;;;;;29.20;24.70;;;;;;;11.13;100.00;99417.84;106089;1288;58814;-76
2022/10/26 07:52:50;;;;;;;27.00;24.30;;;;;;;11.24;100.00;99417.88;106319;1282;65756;-77
2022/10/26 07:55:19;;;;;;;26.80;23.90;;;;;;;11.34;100.00;99413.86;106340;1286;59364;-76
2022/10/26 07:57:45;;;;;;;25.20;22.60;;;;;;;11.46;100.00;99411.37;106309;1284;64013;-76
2022/10/26 08:00:13;;;;;;;28.90;21.20;;;;;;;11.56;100.00;99412.32;106323;1285;59700;-76
2022/10/26 08:02:39;;;;;;;26.30;23.80;;;;;;;11.65;100.00;99413.83;106090;1288;58894;-77
2022/10/26 08:05:06;;;;;;;22.30;20.00;;;;;;;11.76;100.00;99416.14;106335;1284;67078;-76
2022/10/26 08:07:40;;;;;;;23.20;20.90;;;;;;;11.87;100.00;99418.88;106318;1284;60961;-76
2022/10/26 08:10:07;;;;;;;22.00;19.30;;;;;;;11.97;100.00;99414.98;106348;1284;62631;-77
2022/10/26 08:12:34;;;;;;;20.00;17.90;;;;;;;12.07;100.00;99416.48;106314;1279;58784;-76
2022/10/26 08:15:01;;;;;;;16.90;15.10;;;;;;;12.14;100.00;99412.65;106317;1286;58896;-76
2022/10/26 08:17:28;;;;;;;16.00;13.90;;;;;;;12.20;100.00;99411.51;106332;1286;65755;-76
2022/10/26 08:19:55;;;;;;;16.90;14.60;;;;;;;12.26;100.00;99404.48;106364;1284;60087;-77
2022/10/26 08:22:21;;;;;;;16.70;14.90;;;;;;;12.34;100.00;99408.08;106341;1286;64079;-76
2022/10/26 08:24:48;;;;;;;16.70;15.00;;;;;;;12.40;100.00;99411.03;106308;1284;59248;-77
2022/10/26 08:27:15;;;;;;;17.80;16.10;;;;;;;12.46;100.00;99406.05;106330;1286;58858;-77
2022/10/26 08:29:42;;;;;;;19.60;17.70;;;;;;;12.52;100.00;99408.13;106337;1282;65739;-77
2022/10/26 08:32:09;;;;;;;21.30;18.60;;;;;;;12.59;100.00;99402.46;106341;1278;59922;-77
2022/10/26 08:34:35;;;;;;;22.10;18.30;;;;;;;12.66;100.00;99402.35;106084;1287;63687;-77
2022/10/26 08:37:02;;;;;;;18.70;16.90;;;;;;;12.75;100.00;99404.05;106319;1291;59090;-77
2022/10/26 08:39:29;;;;;;;18.00;16.20;;;;;;;12.82;100.00;99406.03;106334;1285;59786;-77
2022/10/26 08:42:05;;;;;;;17.90;15.90;;;;;;;12.89;100.00;99402.19;106332;1285;67048;-77
2022/10/26 08:44:44;;;;;;;16.90;15.10;;;;;;;12.97;100.00;99402.16;106345;1292;60972;-77
2022/10/26 08:47:23;;;;;;;17.80;15.00;;;;;;;13.04;100.00;99401.98;106321;1287;65200;-77
2022/10/26 08:50:00;;;;;;;16.00;14.20;;;;;;;13.13;100.00;99393.16;106309;1286;59238;-77
2022/10/26 08:52:36;;;;;;;15.80;14.40;;;;;;;13.22;100.00;99391.11;106333;1286;58852;-77
2022/10/26 08:55:08;;;;;;;13.10;11.40;;;;;;;13.31;100.00;99391.88;106312;1286;66067;-76
2022/10/26 08:57:40;;;;;;;13.00;10.60;;;;;;;13.40;100.00;99393.42;106028;1287;60761;-77
2022/10/26 09:00:14;;;;;;;11.00;10.00;;;;;;;13.50;100.00;99391.81;106319;1285;65167;-77
2022/10/26 09:02:40;;;;;;;12.40;10.30;;;;;;;13.59;100.00;99388.95;106279;1284;58931;-77
2022/10/26 09:05:15;;;;;;;11.90;9.30;;;;;;;13.69;100.00;99389.37;106322;1285;58927;-77
2022/10/26 09:07:42;;;;;;;11.90;9.90;;;;;;;13.77;100.00;99392.32;106290;1286;67035;-77
2022/10/26 09:10:12;;;;;;;10.60;9.50;;;;;;;13.85;100.00;99395.14;106342;1285;60959;-78
2022/10/26 09:12:38;;;;;;;14.30;9.20;;;;;;;13.94;100.00;99398.35;106327;1284;64797;-77
2022/10/26 09:15:16;;;;;;;11.40;9.30;;;;;;;14.04;100.00;99396.02;106343;1278;58978;-78
2022/10/26 09:18:02;;;;;;;11.10;8.50;;;;;;;14.14;100.00;99392.81;106320;1285;59372;-77
2022/10/26 09:20:37;;;;;;;10.20;7.80;;;;;;;14.23;100.00;99396.00;106333;1286;65937;-78
2022/10/26 09:23:13;;;;;;;8.30;6.60;;;;;;;14.33;100.00;99399.92;106351;1279;60025;-77
2022/10/26 09:25:40;;;;;;;8.80;6.60;;;;;;;14.42;100.00;99401.19;106307;1285;64074;-77
2022/10/26 09:28:19;;;;;;;8.50;6.70;;;;;;;14.51;100.00;99403.73;106322;1285;58865;-77
2022/10/26 09:30:47;;;;;;;8.10;6.90;;;;;;;14.61;100.00;99402.14;106087;1292;58909;-77
2022/10/26 09:33:22;;;;;;;9.20;6.70;;;;;;;14.67;100.00;99404.83;106087;1280;67042;-76
2022/10/26 09:35:55;;;;;;;7.70;6.40;;;;;;;14.73;100.00;99406.58;106369;1286;60730;-77
2022/10/26 09:38:35;;;;;;;9.20;6.70;;;;;;;14.80;100.00;99408.70;106081;1296;65470;-77
2022/10/26 09:41:29;;;;;;;9.30;6.30;;;;;;;14.87;100.00;99405.04;106190;1289;59205;-78
2022/10/26 09:44:00;;;;;;;6.80;5.10;;;;;;;14.97;100.00;99405.55;106334;1278;58881;-78
2022/10/26 09:46:32;;;;;;;5.20;4.50;;;;;;;15.05;100.00;99411.95;106067;1287;66219;-76
2022/10/26 09:49:05;;;;;;;5.30;4.80;;;;;;;15.13;100.00;99411.41;106302;1277;67900;-77
2022/10/26 09:51:35;;;;;;;7.60;5.10;;;;;;;15.22;100.00;99413.27;106326;1286;65000;-76
2022/10/26 09:54:12;;;;;;;5.40;4.50;;;;;;;15.30;100.00;99415.30;106327;1285;59946;-77
2022/10/26 09:56:40;;;;;;;8.00;4.50;;;;;;;15.38;100.00;99410.87;106257;1279;58913;-76
2022/10/26 09:59:10;;;;;;;10.00;4.90;;;;;;;15.47;100.00;99410.85;106299;1286;66015;-77
2022/10/26 10:01:37;;;;;;;5.90;4.50;;;;;;;15.55;100.00;99409.34;106338;1285;61080;-77
2022/10/26 10:04:12;;;;;;;8.80;4.70;;;;;;;15.65;100.00;99407.67;106076;1286;64063;-77
2022/10/26 10:06:40;;;;;;;6.90;4.20;;;;;;;15.79;100.00;99407.81;106309;1286;58938;-77
2022/10/26 10:09:10;;;;;;;4.90;3.50;;;;;;;15.89;100.00;99402.48;106340;1286;58980;-77
2022/10/26 10:11:41;;;;;;;;;;;;;;;15.94;100.00;99403.66;106376;1286;66075;-77
2022/10/26 10:14:15;;;;;;;6.20;4.30;;;;;;;16.00;100.00;99403.38;106321;1286;61158;-76
2022/10/26 10:16:50;;;;;;;6.90;4.20;;;;;;;16.07;100.00;99402.80;106318;1286;65164;-77
2022/10/26 10:19:24;;;;;;;5.00;3.60;;;;;;;16.14;100.00;99402.04;106327;1286;59104;-77
2022/10/26 10:21:54;;;;;;;4.40;3.80;;;;;;;16.20;100.00;99404.23;106323;1285;58915;-77
2022/10/26 10:24:29;;;;;;;5.50;4.20;;;;;;;16.30;100.00;99406.45;106317;1285;67042;-77
2022/10/26 10:27:11;;;;;;;7.40;4.20;;;;;;;16.35;100.00;99402.77;106318;1284;59992;-77
2022/10/26 10:29:46;;;;;;;8.20;4.40;;;;;;;16.36;100.00;99403.42;106333;1287;65262;-77
2022/10/26 10:32:14;;;;;;;7.80;4.00;;;;;;;16.35;100.00;99403.36;106245;1290;59251;-77
2022/10/26 10:34:41;;;;;;;5.50;4.10;;;;;;;16.36;100.00;99405.02;106327;1284;59033;-77
2022/10/26 10:37:29;;;;;;;6.80;4.10;;;;;;;16.38;100.00;99402.16;106322;1285;65986;-77
2022/10/26 10:40:05;;;;;;;6.50;3.70;;;;;;;16.41;100.00;99402.05;106241;1284;59955;-77
2022/10/26 10:42:36;;;;;;;4.80;3.40;;;;;;;16.45;100.00;99402.24;106038;1278;64762;-77
2022/10/26 10:45:04;;;;;;;4.50;3.80;;;;;;;16.49;100.00;99399.27;106316;1285;58921;-77
2022/10/26 10:47:33;;;;;;;5.50;3.50;;;;;;;16.60;100.00;99403.38;105874;1288;59893;-77
2022/10/26 10:50:11;;;;;;;4.60;3.50;;;;;;;16.62;100.00;99402.11;106311;1284;66031;-77
2022/10/26 10:52:38;;;;;;;6.70;2.80;;;;;;;16.66;100.00;99399.08;106340;1282;60084;-77
2022/10/26 10:55:13;;;;;;;4.40;3.30;;;;;;;16.73;100.00;99403.34;106328;1285;65008;-77
2022/10/26 10:57:52;;;;;;;3.00;2.40;;;;;;;16.78;100.00;99404.13;106333;1292;58945;-77
2022/10/26 11:00:19;;;;;;;5.40;3.20;;;;;;;16.83;100.00;99403.69;106326;1286;58973;-77
2022/10/26 11:02:58;;;;;;;4.90;2.60;;;;;;;16.89;100.00;99402.47;106353;1282;67109;-77
2022/10/26 11:05:31;;;;;;;6.20;3.00;;;;;;;16.95;100.00;99403.21;106353;1286;61162;-77
2022/10/26 11:08:22;;;;;;;4.80;3.00;;;;;;;17.02;100.00;99400.67;106295;1284;64024;-77
2022/10/26 11:11:00;;;;;;;5.80;3.10;;;;;;;17.09;100.00;99402.70;106316;1285;58823;-77
2022/10/26 11:13:39;;;;;;;5.90;3.60;;;;;;;17.15;100.00;99407.42;106341;1285;58701;-77
2022/10/26 11:16:13;;;;;;;5.10;3.30;;;;;;;17.17;100.00;99404.94;106305;1285;74780;-77
2022/10/26 11:18:49;;;;;;;6.00;3.70;;;;;;;17.19;100.00;99402.45;106328;1278;60974;-77
2022/10/26 11:21:25;;;;;;;5.50;3.40;;;;;;;17.11;100.00;99403.10;106333;1278;63960;-77
2022/10/26 11:24:00;;;;;;;89.90;13.20;;;;;;;17.06;100.00;99401.55;106085;1286;59754;-77
2022/10/26 11:26:34;;;;;;;6.40;3.70;;;;;;;17.07;100.00;99399.54;106338;1270;58989;-77